Timeline UpdatesTrip UpdatesNews PostsPvt PostsTravel TipsAdmin PostsConv PostsFollowed PostsChat RequestsBlog PostsPNR Posts

Disclaimer
Search
 
 
Thu Oct 2, 2014 05:52:37 ISTHomeTrainsΣChainsAtlasPNRForumGalleryNewsFAQTripsMembersLoginFeedback
No Recent News for this Train
Other Trains in the News **new
Latest...
.
Thu Jul 24, 2014 (11:10PM)
⇐ Return Journey: Train# 19019

19020/Dehradun - Mumbai Bandra Terminus Express

Time-Table HAS CHANGED.
Sep 03 (11:17AM)
Change Departure Station:
Change Arrival Station:
Post a Train Travel TipPost a Train Travel Tip **new
Post a Comment/Question/Picture/VideoPost a Comment/Question/Picture/Video
Pantry/Catering
✕ NO Pantry Car
✓ Catering Avbl
Loco/Rake Reversals
SRE/Saharanpur Junction (6); LRJ/Laksar Junction (4);
RSA - Rake Sharing
Rake/Coach Composition
LOCO-SLR-HCPV-GEN-GEN-AB1-S1-S2-S3-S4-S5-S6-S7-S8-S9-SLR
Loco
GZB WAP-7 NZM-BDTS. ddn to nzm tkd wdp 3a. By Er...
Read more...
Ankit Shotra Bhagat Entry# 595554
News    PNR    Forum    Time-Table    Availability    Fare Chart    Map    Arr/Dep History    Trips    Gallery    ΣChains    X/O    Timeline    
Travel Time: 4h 49m    6 halts    Distance: 233 km    Avg Speed: 48 km/hr
Type: Mail/Express
Zone: WR/Western
Departs @ 22:38 (Avg 7m late)
Platform# 2
SMTWTFS
Surat/ST 
Arrives @ 03:27 +1 night (Avg 2m late)
Platform# 5
SMTWTFS
Mumbai Borivali/BVI 

6 halts. 40 intermediate Stations between Surat and Mumbai Borivali

Show ALL intermediate Stations  Show Old Time-Table

#CodeStation NameX/OArrivesAvgDepartsAvgHaltPFDay#KmSpeedElevZoneAddress
1DDNDehradun (4)  -10:35 10:30+021-1429.938648mNRDehradun, Uttarakhand
2DWODoiwala  11:04 11:01+311:06 11:03+32m--1-1410.141484mNRDehradun, Uttarakhand
3RWLRaiwala Junction (2)X  11:38 11:33+511:40 11:35+162m21-1389.417361mNRRishikesh, Uttarakhand
4MOTCMotichur (2)  12:00 11:58+812:02 12:00+122m11-1382.818312mNRHaridwar, Uttarakhand
5HWHaridwar Junction (9)X  12:15+1112:45+1230m31-1378.248294mNRHaridwar, Uttarakhand
6JWPJwalapurX  12:53 12:50+1412:55 12:52+152m--1-1374.320292mNRHaridwar, Uttarakhand
7LRJLaksar Junction (4)X14:00+1514:25+1325m--1-1351.353238mNRLaksar, Uttarakhand
8RKRoorkee (3)X  14:43 14:45+1414:45 14:50+152 5m31-1333.546264mNRRoorkee - 247667, Uttarakhand
9SRESaharanpur Junction (6)X15:35+1416:05+530m41-1298.848276mNRSaharanpur, Uttar Pradesh
10DBDDeoband (2)  16:50 16:48+1216:52 16:50+142m21-1264.644258mNRSaharanpur, Uttar Pradesh
11MOZMuzaffarnagar (3)X  17:20 17:23+1017:22 17:25+262m21-1240.663247mNRMuzaffarNagar, Uttar Pradesh
12KATKhatauli (2)  17:42 17:46+2717:44 17:48+282m11-1218.476239mNRKhatauli, Uttar Pradesh
13MUTMeerut Cantt. (2)  18:08 18:11+3218:10 18:13+322m11-1189.312230mNRMeerut, Uttar Pradesh
14MTCMeerut City Junction (6)X18:35+1919:20+1145m41-1185.073229mNRMeerut, Uttar Pradesh
15MDNRModinagar (2)X  19:34 19:36+1719:36 19:38+172m21-1165.555221mNRGhaziabad, Uttar Pradesh
16MUDMuradnagar (2)X  19:45 19:49+1719:47 19:51+172m21-1155.459220mNRGhaziabad, Uttar Pradesh
17GZNNew Ghaziabad (2)XO  20:02 20:03+1620:04 20:05+162m21-1143.714213mNRGhaziabad, Uttar Pradesh
18GZBGhaziabad Junction (6)XO  20:30 20:31+620:32 20:33+92m41-1137.834217mNRGhaziabad, Uttar Pradesh
19SBBSahibabad Junction (5)X  20:41 20:45+1420:43 20:46+152 1m--1-1131.133209mNRGhaziabad, Uttar Pradesh
20NZMDelhi Hazrat Nizamuddin (7)O21:15+1521:55+1440m11-1115.025209mNRNew Delhi 110013, Delhi NCT
21TKDTuglakabad (4)XO  22:18+1022:20+142m--1-1105.444213mNRNear Tughlakabad Metro Station, Delhi NCT
22FDBFaridabad (4)O  22:44 22:35+922:46 22:36+112 1m31-1094.235206mNRold Faridabad, Haryana
23BVHBallabgarh (5)X  22:58 22:50+1123:00 22:52+122m--1-1086.229203mNRFaridabad, Haryana
24PWLPalwal (8)X  23:36+323:38+42m--1-1065.085200mNRPalwal, Haryana
25KSVKosi Kalan (3)O  00:08+1900:10+202m22-1022.529189mNCRKosi Kalan, Uttar Pradesh
26MTJMathura Junction (10)XO  01:35+001:45 01:40+310 5m32-981.161179mNCRMathura, Uttar Pradesh
27BTEBharatpur Junction (5)  02:10 02:13+502:15+75 2m--2-947.684174mWCRBharatpur, Rajasthan
28BXNBayana Junction (3)X  02:45+702:47+92m--2-905.670198mWCRBayana, Rajasthan
29HANHindaun City (2)  03:15+1203:17+152m--2-872.756230mWCRKarauli, Rajasthan
30SMBJShri Mahabirji (3)O  03:26 03:28+1403:28 03:30+142m--2-862.541240mWCRKarauli, Rajasthan
31GGCGangapur City (3)  04:10 04:20+304:20 04:25+810 5m--2-828.463270mWCRGangapur, Rajasthan
32MLZMalarnaX  04:50 04:57+904:52 04:59+92m--2-794.786236mWCRSawai Madhopur, Rajasthan
33SWMSawai Madhopur Junction (4)X  05:20+1105:25+115m--2-764.578266mWCRSawai Madhopur, Rajasthan
34IDGIndargarh Sumerganj Mandi (2)X  05:48 05:53+1305:50 05:55+162m--2-728.366247mWCRIndargarh, Rajasthan
35LKELakheri (3)  05:58 06:05+1706:00 06:07+172m--2-717.369228mWCRBundi, Rajasthan
36KPTNKeshorai PatanXO  06:38 06:48+1906:40 06:50+202m--2-670.253243mWCRSH 33, Rajasthan
37GQLGurlaO  06:48 06:59+2406:50 07:00+262 1m--2-662.211251mWCRSH 33, Rajasthan
38KOTAKota Junction (5)X07:30+707:50+1320m22-656.833256mWCRKota, Rajasthan
39DKNTDakaniya Talav (2)  08:01 08:07+1508:03 08:08+172 1m22-647.579278mWCRKota, Rajasthan
40DARADara  08:30 08:37+1908:32 08:39+202m--2-609.363354mWCRDara, Rajasthan
41MKXMorak (2)X  08:48 08:53+1908:50 08:55+202m--2-594.642337mWCRMorak, Rajasthan
42RMARamganj Mandi Junction (3)  09:03 09:08+1709:05 09:10+212m--2-585.557358mWCRRamganj Mandi, Rajasthan
43JHWJhalawar Road (3)  09:18 09:23+2009:20 09:25+212m--2-573.255361mWCRJhalawar City, Rajasthan
44BWMBhawani Mandi (3)  09:38 09:43+1809:40 09:45+262m--2-556.776384mWCRBhawani Mandi, Madhya Pradesh
45GOHGaroth (2)X  09:58 10:03+2610:00 10:05+272m12-534.028441mWCRMadhya Pradesh 458880, Madhya Pradesh
46SGZShamgarh (3)X  10:25 10:28+1510:30+225 2m--2-523.267463mWCRMandsaur, Madhya Pradesh
47SVASuwasra (2)  10:42+2410:44+252m--2-509.866450mWCRSuwasra, Madhya Pradesh
48CMUChau Mahla (3)  10:58+2511:00+282m12-494.435426mWCRJhalawar, Rajasthan
49THURThuriaX  11:24+1611:26+182m--2-480.221430mWCRMDR 45, Madhya Pradesh
50VMAVikramgarh Alot (2)X  11:48+711:50+122m12-472.661443mWCRKota Division, Madhya Pradesh
51LNRLuni Richha  12:03+1112:05+132m--2-459.328471mWCRAlote, Madhya Pradesh
52MEPMahidpur Road  12:28+512:30+82m--2-448.729493mWCRGogapur, Madhya Pradesh
53NADNagda Junction (4)  13:05+413:15+710m--2-431.664468mWRNagda, Madhya Pradesh
54KUHKhachrod (2)  13:26 13:28+1013:28 13:30+102m--2-417.857497mWRUjjain, Madhya Pradesh
55RNHRunkheraX  13:39 13:41+913:41 13:42+92 1m--2-407.455478mWRUjjain, Madhya Pradesh
56BODBangrodX  13:48 13:50+1013:50 13:51+102 1m--2-400.025484mWRRatlam, Madhya Pradesh
57RTMRatlam Junction (7)X  14:15+514:35+720m42-390.270495mWRRatlam, Madhya Pradesh
58RTIRaoti (2)  14:56 14:58+1214:58 14:59+122 1m--2-363.365409mWRState Highway 39A, Madhya Pradesh
59BOGBhairongarh (2)  15:08 15:10+1415:10 15:11+142 1m--2-351.445374mWRBhairongarh Railway Station, Madhya Pradesh
60BMIBamnia (2)  15:17 15:19+1615:19 15:21+152m--2-345.442392mWRBamnia, Madhya Pradesh
61AGRAmargarh (2)  15:25 15:27+1515:27 15:28+152 1m--2-341.352410mWRSH 39A, Madhya Pradesh
62PCNPanch Pipila (2)  15:37 15:39+1415:39 15:40+142 1m--2-331.876369mWRSH 39A, Madhya Pradesh
63THDRThandla Road (2)  15:49 15:51+1715:51 15:53+162m--2-317.960317mWRJhabua, Madhya Pradesh
64MGNMeghnagar (3)  15:59 16:01+1716:01 16:03+172m--2-309.973317mWRJhabua, Madhya Pradesh
65ANASAnas (2)  16:13 16:15+1816:15 16:16+172 1m--2-295.368288mWRMadhya Pradesh 389154 ?, Madhya Pradesh
66BIOBordi (2)  16:21 16:23+1816:23 16:24+182 1m--2-287.458289mWRNational Highway 59, Gujarat
67DHDDahod (3)X  16:35+2216:40 16:37+245 2m--2-276.864313mWRDahod, Gujarat
68LMKLimkheda  17:06 17:08+2917:08 17:09+292 1m--2-243.860205mWRLimkheda, Gujarat
69PPDPiplod Junction  17:15 17:17+3017:17 17:19+292m--2-235.979209mWRPiplod, Gujarat
70SATSant Road (2)X  17:26 17:28+2917:28 17:30+282m22-224.120169mWROrwara, Gujarat
71GDAGodhra Junction (3)X  18:30+318:35+75m102-203.754122mWRGodhra, Gujarat
72KRSAKharsaliya (2)  18:45 18:47+1018:47 18:48+102 1m--2-192.876107mWRPanchmahal, Gujarat
73DRLDerolX  18:56 18:58+1118:58 19:00+112m12-180.16881mWRKalol, Gujarat
74CPNChampaner Road JunctionXO  19:09 19:11+1119:11 19:13+102m--2-167.67578mWRPanchmahal, Gujarat
75SMLASamlaya Junction (3)X  19:20 19:22+1019:22 19:24+112m--2-156.45267mWRVadodara, Gujarat
76BRCVadodara Junction (7)  19:55+2220:05+2210m32-129.88136mWRVadodara 390005, Gujarat
77MYGMiyagam Karjan (2)  20:25 20:27+2920:27 20:28+292 1m--2-100.07029mWRKarjan, Gujarat
78BHBharuch Junction (5)X  21:01 21:03+1821:03 21:05+182m42-59.36219mWRBharuch, Gujarat
79AKVAnkleshwar Junction (4)X  21:12 21:14+1921:14 21:16+192m22-49.99319mWRAnkleshwar, Gujarat
80KSBKosamba Junction (3)X21:29 21:28+2721:31 21:30+272m--2-31.43130mWRKosamba, Gujarat
81STSurat (4)»X  22:30+822:38+78m220.07419mWRSurat 395001, Gujarat
82NVSNavsari (3)  23:03 23:02+1523:05+152 3m--229.67914mWRNavsari, Gujarat
83BIMBilimora Junction (4)X  23:21+2123:23+212m--250.83611mWRBilimora, Gujarat
84BLValsad (3)  23:53+1623:55+222m3268.73815mWRValsad, Gujarat
85VAPIVapi (3)X  00:36+900:38+112m--394.96827mWRVapi, Gujarat
86PLGPalghar (3)X  02:04 01:50+1602:06 02:02+152 12m--3176.43519mWRPalghar, Maharashtra
87VRVirar (8)  02:56+202:58+42m--3207.6536mWRDist. Palghar, Maharashtra
88BVIMumbai Borivali (8)•  03:30 03:27+203:32+32 5m53233.42319mWRMumbai - 400092, Maharashtra
89BDTSMumbai Bandra Terminus (5)  04:20-3-13252.2-4mWRMumbai 400050, Maharashtra
Scroll to Top
Scroll to Bottom